Time;durP1;ratioP1;P1;durP2;ratioP2;P2;SDS_P1;SDS_P2;PMS_P1;PMS_P2;Temp;Humidity;BMP_temperature;BMP_pressure;BME280_temperature;BME280_humidity;BME280_pressure;Samples;Min_cycle;Max_cycle;Signal;HPM_P1;HPM_P2
2023/03/18 00:00:45;;;;;;;35.33;21.00;;;;;;;;;;5074805;28;20314;-67
2023/03/18 00:03:32;;;;;;;33.05;20.27;;;;;;;;;;5074261;28;20033;-67
2023/03/18 00:06:18;;;;;;;34.97;20.70;;;;;;;;;;5059450;28;20044;-67
2023/03/18 00:09:04;;;;;;;32.97;20.08;;;;;;;;;;5073721;28;20400;-67
2023/03/18 00:11:50;;;;;;;37.08;21.30;;;;;;;;;;5073858;28;20024;-67
2023/03/18 00:14:36;;;;;;;31.65;19.73;;;;;;;;;;5073963;28;20158;-67
2023/03/18 00:17:22;;;;;;;41.55;20.02;;;;;;;;;;5076429;28;20048;-67
2023/03/18 00:20:11;;;;;;;32.60;20.10;;;;;;;;;;5076610;28;20376;-67
2023/03/18 00:22:57;;;;;;;34.70;19.35;;;;;;;;;;5077108;28;20364;-67
2023/03/18 00:25:45;;;;;;;33.78;20.58;;;;;;;;;;5077802;28;20448;-69
2023/03/18 00:28:31;;;;;;;33.58;20.73;;;;;;;;;;5077252;28;20024;-67
2023/03/18 00:31:17;;;;;;;35.47;21.38;;;;;;;;;;5077175;28;20025;-67
2023/03/18 00:34:03;;;;;;;33.28;20.10;;;;;;;;;;5076426;28;20334;-68
2023/03/18 00:36:55;;;;;;;34.35;20.83;;;;;;;;;;5077792;28;20031;-68
2023/03/18 00:39:43;;;;;;;37.17;22.48;;;;;;;;;;5077483;28;20028;-68
2023/03/18 00:42:34;;;;;;;37.13;22.38;;;;;;;;;;5077403;28;20021;-67
2023/03/18 00:45:20;;;;;;;35.42;21.42;;;;;;;;;;5063141;28;20441;-68
2023/03/18 00:48:06;;;;;;;34.60;22.65;;;;;;;;;;5076902;28;20029;-66
2023/03/18 00:50:52;;;;;;;36.58;21.92;;;;;;;;;;5076620;28;20094;-67
2023/03/18 00:53:41;;;;;;;34.10;22.05;;;;;;;;;;5076867;28;20038;-68
2023/03/18 00:56:29;;;;;;;36.83;21.75;;;;;;;;;;5076431;28;20031;-68
2023/03/18 00:59:15;;;;;;;40.83;22.83;;;;;;;;;;5061974;28;20028;-67
2023/03/18 01:02:00;;;;;;;36.20;22.05;;;;;;;;;;5061435;28;20028;-68
2023/03/18 01:04:46;;;;;;;37.05;22.02;;;;;;;;;;5077048;28;20103;-68
2023/03/18 01:07:32;;;;;;;38.85;23.75;;;;;;;;;;5076636;28;20040;-66
2023/03/18 01:10:19;;;;;;;120.65;71.43;;;;;;;;;;5076694;28;20056;-67
2023/03/18 01:13:05;;;;;;;135.32;76.95;;;;;;;;;;5075965;28;20017;-67
2023/03/18 01:15:51;;;;;;;87.22;51.17;;;;;;;;;;5076463;28;20024;-69
2023/03/18 01:18:36;;;;;;;46.47;29.42;;;;;;;;;;5076285;28;20024;-68
2023/03/18 01:21:22;;;;;;;29.88;17.30;;;;;;;;;;5076200;28;20012;-68
2023/03/18 01:24:09;;;;;;;26.02;15.90;;;;;;;;;;5076461;28;20016;-68
2023/03/18 01:26:55;;;;;;;21.33;13.10;;;;;;;;;;5061090;28;20028;-68
2023/03/18 01:29:41;;;;;;;23.88;12.05;;;;;;;;;;5076778;28;20361;-67
2023/03/18 01:32:27;;;;;;;18.67;11.38;;;;;;;;;;5076225;28;20035;-67
2023/03/18 01:35:13;;;;;;;18.65;11.27;;;;;;;;;;5074910;28;20021;-67
2023/03/18 01:37:58;;;;;;;19.02;11.93;;;;;;;;;;5076341;28;20464;-67
2023/03/18 01:40:44;;;;;;;17.55;11.38;;;;;;;;;;5076257;28;20045;-69
2023/03/18 01:43:32;;;;;;;22.00;11.88;;;;;;;;;;5076553;28;20044;-68
2023/03/18 01:46:30;;;;;;;24.23;11.75;;;;;;;;;;5075990;28;20017;-68
2023/03/18 01:49:38;;;;;;;16.27;10.45;;;;;;;;;;5075812;28;20013;-67
2023/03/18 01:52:26;;;;;;;20.80;12.93;;;;;;;;;;5075717;28;20052;-66
2023/03/18 01:55:14;;;;;;;18.30;11.93;;;;;;;;;;5075804;28;20032;-68
2023/03/18 01:58:02;;;;;;;19.48;10.20;;;;;;;;;;5061098;28;20028;-68
2023/03/18 02:00:52;;;;;;;17.45;10.82;;;;;;;;;;5061294;28;20464;-67
2023/03/18 02:03:40;;;;;;;16.33;10.05;;;;;;;;;;5060655;28;20016;-68
2023/03/18 02:06:25;;;;;;;15.95;9.57;;;;;;;;;;5075560;28;20048;-68
2023/03/18 02:09:11;;;;;;;19.08;10.52;;;;;;;;;;5075986;28;20047;-67
2023/03/18 02:11:58;;;;;;;16.48;9.60;;;;;;;;;;5075422;28;20063;-67
2023/03/18 02:14:44;;;;;;;19.75;8.82;;;;;;;;;;5075705;28;20107;-67
2023/03/18 02:17:32;;;;;;;15.48;9.15;;;;;;;;;;5074291;28;20063;-68
2023/03/18 02:20:17;;;;;;;20.48;9.10;;;;;;;;;;5074996;28;20405;-66
2023/03/18 02:23:26;;;;;;;15.65;9.45;;;;;;;;;;5074442;28;20360;-67
2023/03/18 02:26:12;;;;;;;18.10;9.70;;;;;;;;;;5036250;28;20047;-68
2023/03/18 02:29:01;;;;;;;21.33;10.20;;;;;;;;;;5074504;28;20078;-67
2023/03/18 02:31:48;;;;;;;19.58;10.10;;;;;;;;;;5075640;28;20024;-68
2023/03/18 02:34:35;;;;;;;17.50;10.65;;;;;;;;;;5060829;28;20347;-67
2023/03/18 02:37:20;;;;;;;18.25;11.05;;;;;;;;;;5074845;28;20213;-68
2023/03/18 02:40:19;;;;;;;19.00;12.02;;;;;;;;;;5073585;28;20100;-67
2023/03/18 02:43:15;;;;;;;16.85;11.38;;;;;;;;;;5074126;28;20357;-68
2023/03/18 02:46:13;;;;;;;17.50;11.57;;;;;;;;;;5075083;28;20020;-68
2023/03/18 02:49:00;;;;;;;18.27;11.20;;;;;;;;;;5061170;28;20455;-67
2023/03/18 02:51:46;;;;;;;17.20;10.63;;;;;;;;;;5074529;28;20020;-67
2023/03/18 02:54:32;;;;;;;18.15;11.00;;;;;;;;;;5074518;28;20032;-67
2023/03/18 02:57:17;;;;;;;18.58;11.32;;;;;;;;;;5073875;28;20020;-67
2023/03/18 03:00:04;;;;;;;16.55;10.48;;;;;;;;;;5060353;28;20020;-68
2023/03/18 03:02:50;;;;;;;28.05;10.75;;;;;;;;;;5074325;28;20103;-67
2023/03/18 03:05:36;;;;;;;15.30;9.18;;;;;;;;;;5074508;28;20017;-68
2023/03/18 03:08:22;;;;;;;14.65;8.52;;;;;;;;;;5075241;28;20029;-69
2023/03/18 03:11:09;;;;;;;11.75;7.72;;;;;;;;;;5074893;28;20524;-66
2023/03/18 03:13:54;;;;;;;16.40;8.65;;;;;;;;;;5074498;28;20127;-68
2023/03/18 03:16:40;;;;;;;13.32;7.53;;;;;;;;;;5075177;28;20379;-68
2023/03/18 03:19:25;;;;;;;13.88;7.65;;;;;;;;;;5074143;28;20441;-68
2023/03/18 03:22:11;;;;;;;13.82;8.23;;;;;;;;;;5074016;28;20082;-67
2023/03/18 03:24:57;;;;;;;17.98;8.60;;;;;;;;;;5074575;28;20021;-67
2023/03/18 03:27:42;;;;;;;16.35;7.22;;;;;;;;;;5075024;28;20025;-68
2023/03/18 03:30:29;;;;;;;14.93;7.25;;;;;;;;;;5060438;28;20024;-67
2023/03/18 03:33:14;;;;;;;12.95;6.47;;;;;;;;;;5074859;28;20469;-68
2023/03/18 03:36:00;;;;;;;14.95;7.05;;;;;;;;;;5074038;28;20357;-67
2023/03/18 03:38:45;;;;;;;16.65;7.97;;;;;;;;;;5074178;28;20379;-68
2023/03/18 03:41:31;;;;;;;15.77;7.90;;;;;;;;;;5073769;28;20352;-68
2023/03/18 03:44:17;;;;;;;17.52;8.43;;;;;;;;;;5073964;28;20025;-67
2023/03/18 03:47:02;;;;;;;14.27;7.43;;;;;;;;;;5073051;28;20392;-67
2023/03/18 03:49:48;;;;;;;19.27;7.97;;;;;;;;;;5075023;28;20021;-68
2023/03/18 03:52:34;;;;;;;13.68;7.43;;;;;;;;;;5077121;28;20020;-68
2023/03/18 03:55:21;;;;;;;11.68;6.20;;;;;;;;;;5063873;28;20052;-67
2023/03/18 03:58:07;;;;;;;12.55;5.85;;;;;;;;;;5077699;28;20028;-67
2023/03/18 04:00:52;;;;;;;10.30;5.70;;;;;;;;;;5075711;28;20502;-67
2023/03/18 04:03:38;;;;;;;11.60;6.03;;;;;;;;;;5062888;28;20024;-68
2023/03/18 04:06:23;;;;;;;16.20;6.15;;;;;;;;;;5076587;28;20056;-67
2023/03/18 04:09:09;;;;;;;13.73;6.60;;;;;;;;;;5078852;28;20460;-68
2023/03/18 04:11:55;;;;;;;13.18;6.07;;;;;;;;;;5076740;28;20436;-67
2023/03/18 04:14:41;;;;;;;14.10;7.45;;;;;;;;;;5077209;28;20071;-68
2023/03/18 04:17:26;;;;;;;16.27;8.52;;;;;;;;;;5077716;28;20078;-68
2023/03/18 04:20:12;;;;;;;17.15;10.38;;;;;;;;;;5077189;28;20086;-69
2023/03/18 04:22:58;;;;;;;16.35;10.82;;;;;;;;;;5062393;28;20078;-68
2023/03/18 04:25:43;;;;;;;20.02;12.50;;;;;;;;;;5062571;28;20103;-67
2023/03/18 04:28:29;;;;;;;17.20;11.77;;;;;;;;;;5077037;28;20024;-67
2023/03/18 04:31:15;;;;;;;18.88;11.90;;;;;;;;;;5077919;28;20429;-68
2023/03/18 04:34:01;;;;;;;19.27;11.95;;;;;;;;;;5076298;28;20073;-69
2023/03/18 04:36:46;;;;;;;22.05;12.30;;;;;;;;;;5076813;28;20059;-68
2023/03/18 04:39:32;;;;;;;20.88;13.13;;;;;;;;;;5076768;28;20115;-68
2023/03/18 04:42:18;;;;;;;19.85;12.50;;;;;;;;;;5076053;28;20017;-69
2023/03/18 04:45:04;;;;;;;21.02;12.75;;;;;;;;;;5061640;28;20016;-67
2023/03/18 04:47:50;;;;;;;22.40;13.23;;;;;;;;;;5077049;28;20021;-68
2023/03/18 04:50:35;;;;;;;24.88;12.15;;;;;;;;;;5077192;28;20361;-68
2023/03/18 04:53:21;;;;;;;29.55;12.40;;;;;;;;;;5076732;28;20020;-67
2023/03/18 04:56:07;;;;;;;25.52;12.00;;;;;;;;;;5077086;28;20025;-68
2023/03/18 04:58:53;;;;;;;21.55;11.57;;;;;;;;;;5076547;28;20020;-68
2023/03/18 05:01:38;;;;;;;19.33;11.82;;;;;;;;;;5076694;28;20104;-68
2023/03/18 05:04:24;;;;;;;17.75;10.13;;;;;;;;;;5076020;28;20448;-68
2023/03/18 05:07:12;;;;;;;17.80;10.02;;;;;;;;;;5075603;28;20060;-67
2023/03/18 05:09:58;;;;;;;16.73;9.48;;;;;;;;;;5076835;28;20029;-67
2023/03/18 05:12:43;;;;;;;18.13;9.20;;;;;;;;;;5076759;28;20142;-68
2023/03/18 05:15:29;;;;;;;15.77;8.60;;;;;;;;;;5076084;28;20027;-68
2023/03/18 05:18:15;;;;;;;16.85;9.63;;;;;;;;;;5076227;28;20035;-67
2023/03/18 05:21:01;;;;;;;16.20;8.38;;;;;;;;;;5062288;28;20079;-68
2023/03/18 05:23:47;;;;;;;12.18;7.18;;;;;;;;;;5062147;28;20043;-67
2023/03/18 05:26:32;;;;;;;10.13;5.78;;;;;;;;;;5075747;28;20020;-67
2023/03/18 05:29:18;;;;;;;7.82;4.82;;;;;;;;;;5075671;28;20025;-69
2023/03/18 05:32:05;;;;;;;6.63;3.20;;;;;;;;;;5074063;28;20028;-68
2023/03/18 05:34:51;;;;;;;5.32;2.75;;;;;;;;;;5076653;28;20024;-69
2023/03/18 05:37:37;;;;;;;5.00;2.92;;;;;;;;;;5062380;28;20043;-69
2023/03/18 05:40:23;;;;;;;4.45;2.75;;;;;;;;;;5076171;28;20025;-67
2023/03/18 05:43:09;;;;;;;6.65;3.28;;;;;;;;;;5075179;28;20445;-68
2023/03/18 05:45:54;;;;;;;5.72;2.72;;;;;;;;;;5077378;28;20024;-68
2023/03/18 05:48:40;;;;;;;8.32;3.13;;;;;;;;;;5075181;28;20034;-68
2023/03/18 05:51:26;;;;;;;7.28;3.00;;;;;;;;;;5075637;28;20032;-67
2023/03/18 05:54:12;;;;;;;9.68;3.60;;;;;;;;;;5062225;28;20036;-66
2023/03/18 05:56:58;;;;;;;6.45;2.85;;;;;;;;;;5061573;28;20055;-68
2023/03/18 05:59:44;;;;;;;6.70;3.40;;;;;;;;;;5074857;28;20384;-68
2023/03/18 06:02:31;;;;;;;5.75;2.78;;;;;;;;;;5075351;28;20012;-67
2023/03/18 06:05:17;;;;;;;9.18;2.63;;;;;;;;;;5076907;28;20122;-66
2023/03/18 06:08:03;;;;;;;6.60;2.80;;;;;;;;;;5074968;28;20075;-69
2023/03/18 06:10:48;;;;;;;6.55;3.25;;;;;;;;;;5076883;28;20021;-69
2023/03/18 06:13:34;;;;;;;6.28;3.08;;;;;;;;;;5078148;28;20137;-68
2023/03/18 06:16:20;;;;;;;7.93;3.38;;;;;;;;;;5076374;28;20341;-67
2023/03/18 06:19:06;;;;;;;6.68;3.00;;;;;;;;;;5074801;28;20032;-69
2023/03/18 06:21:52;;;;;;;8.98;3.00;;;;;;;;;;5075533;28;20051;-68
2023/03/18 06:24:37;;;;;;;5.68;2.92;;;;;;;;;;5076313;28;20016;-68
2023/03/18 06:27:23;;;;;;;6.25;2.90;;;;;;;;;;5075733;28;20028;-67
2023/03/18 06:30:09;;;;;;;4.65;3.03;;;;;;;;;;5074605;28;20057;-68
2023/03/18 06:32:54;;;;;;;6.10;3.53;;;;;;;;;;5075144;28;20429;-67
2023/03/18 06:35:40;;;;;;;9.32;3.63;;;;;;;;;;5074163;28;20028;-68
2023/03/18 06:38:27;;;;;;;7.22;3.78;;;;;;;;;;5077001;28;20035;-67
2023/03/18 06:41:13;;;;;;;5.25;3.83;;;;;;;;;;5075586;28;20032;-67
2023/03/18 06:43:59;;;;;;;7.40;4.10;;;;;;;;;;5076059;28;20417;-68
2023/03/18 06:46:44;;;;;;;6.05;3.80;;;;;;;;;;5075501;28;20122;-67
2023/03/18 06:49:30;;;;;;;7.82;3.33;;;;;;;;;;5077727;28;20025;-69
2023/03/18 06:52:17;;;;;;;11.43;4.63;;;;;;;;;;5074735;28;20094;-69
2023/03/18 06:55:05;;;;;;;8.95;3.60;;;;;;;;;;5075929;28;20025;-68
2023/03/18 06:57:51;;;;;;;12.30;3.47;;;;;;;;;;5076850;28;20028;-70
2023/03/18 07:00:37;;;;;;;9.57;3.40;;;;;;;;;;5076220;28;20449;-69
2023/03/18 07:03:24;;;;;;;9.77;3.63;;;;;;;;;;5075760;28;20548;-69
2023/03/18 07:06:10;;;;;;;9.70;3.45;;;;;;;;;;5074992;28;20051;-69
2023/03/18 07:08:56;;;;;;;9.77;3.60;;;;;;;;;;5075373;28;20020;-68
2023/03/18 07:11:43;;;;;;;13.38;4.28;;;;;;;;;;5074046;28;20044;-68
2023/03/18 07:14:29;;;;;;;14.80;3.97;;;;;;;;;;5076471;28;20455;-69
2023/03/18 07:17:15;;;;;;;6.10;3.00;;;;;;;;;;5076902;28;20081;-68
2023/03/18 07:20:00;;;;;;;11.77;3.30;;;;;;;;;;5074313;28;20024;-69
2023/03/18 07:22:46;;;;;;;6.43;2.95;;;;;;;;;;5074491;28;20099;-68
2023/03/18 07:25:32;;;;;;;6.15;3.08;;;;;;;;;;5074818;28;20027;-68
2023/03/18 07:28:17;;;;;;;7.03;3.70;;;;;;;;;;5079371;28;20116;-68
2023/03/18 07:31:03;;;;;;;10.07;3.25;;;;;;;;;;5079830;28;20025;-69
2023/03/18 07:33:48;;;;;;;7.47;3.20;;;;;;;;;;5077904;28;20090;-68
2023/03/18 07:36:35;;;;;;;8.15;3.28;;;;;;;;;;5077955;28;20025;-69
2023/03/18 07:39:22;;;;;;;5.40;3.20;;;;;;;;;;5080103;28;20030;-68
2023/03/18 07:42:08;;;;;;;4.82;2.95;;;;;;;;;;5078478;28;20130;-69
2023/03/18 07:44:54;;;;;;;7.57;3.63;;;;;;;;;;5078237;28;20031;-69
2023/03/18 07:47:40;;;;;;;6.78;3.15;;;;;;;;;;5079156;28;20047;-68
2023/03/18 07:50:26;;;;;;;9.85;3.92;;;;;;;;;;5078789;28;20020;-66
2023/03/18 07:53:13;;;;;;;13.95;3.50;;;;;;;;;;5077420;28;20138;-68
2023/03/18 07:55:59;;;;;;;10.82;3.15;;;;;;;;;;5077521;28;20032;-69
2023/03/18 07:58:45;;;;;;;18.58;3.83;;;;;;;;;;5078702;28;20021;-69
2023/03/18 08:01:31;;;;;;;7.35;3.25;;;;;;;;;;5078563;28;20483;-68
2023/03/18 08:04:18;;;;;;;7.63;2.72;;;;;;;;;;5077766;28;20086;-68
2023/03/18 08:07:03;;;;;;;5.70;2.70;;;;;;;;;;5063380;28;20041;-68
2023/03/18 08:09:49;;;;;;;5.00;2.60;;;;;;;;;;5058179;28;20045;-68
2023/03/18 08:12:35;;;;;;;9.32;3.30;;;;;;;;;;5057978;28;20111;-68
2023/03/18 08:15:21;;;;;;;7.22;2.97;;;;;;;;;;5057780;28;20044;-68
2023/03/18 08:18:07;;;;;;;5.35;2.63;;;;;;;;;;5057434;28;20095;-70
2023/03/18 08:20:53;;;;;;;7.00;2.67;;;;;;;;;;5043943;28;20350;-68
2023/03/18 08:23:39;;;;;;;8.30;2.90;;;;;;;;;;5056998;28;20021;-69
2023/03/18 08:26:24;;;;;;;7.43;3.50;;;;;;;;;;5043360;28;20045;-69
2023/03/18 08:29:10;;;;;;;11.63;3.03;;;;;;;;;;5058330;28;20365;-69
2023/03/18 08:31:56;;;;;;;10.30;3.22;;;;;;;;;;5056569;28;20121;-68
2023/03/18 08:34:42;;;;;;;5.97;2.53;;;;;;;;;;5057971;28;20025;-68
2023/03/18 08:37:27;;;;;;;7.13;2.90;;;;;;;;;;5055709;28;20438;-67
2023/03/18 08:40:13;;;;;;;7.18;2.92;;;;;;;;;;5057815;28;20036;-67
2023/03/18 08:42:58;;;;;;;7.13;2.75;;;;;;;;;;5056903;28;20017;-69
2023/03/18 08:45:44;;;;;;;11.13;3.28;;;;;;;;;;5056780;28;20071;-68
2023/03/18 08:48:31;;;;;;;9.00;2.95;;;;;;;;;;5056551;28;20021;-68
2023/03/18 08:51:16;;;;;;;8.07;2.72;;;;;;;;;;5057328;28;20415;-68
2023/03/18 08:54:02;;;;;;;7.13;3.60;;;;;;;;;;5042807;28;20025;-68
2023/03/18 08:56:47;;;;;;;8.25;3.53;;;;;;;;;;5056028;28;20021;-68
2023/03/18 08:59:33;;;;;;;10.13;4.03;;;;;;;;;;5057181;28;20118;-68
2023/03/18 09:02:19;;;;;;;8.32;3.10;;;;;;;;;;5043243;28;20473;-68
2023/03/18 09:05:05;;;;;;;5.63;2.80;;;;;;;;;;5056454;28;20036;-70
2023/03/18 09:07:52;;;;;;;5.75;2.78;;;;;;;;;;5056818;28;20044;-69
2023/03/18 09:10:37;;;;;;;6.07;2.63;;;;;;;;;;5057218;28;20021;-71
2023/03/18 09:13:23;;;;;;;8.32;3.22;;;;;;;;;;5055771;28;20121;-71
2023/03/18 09:16:09;;;;;;;8.23;3.38;;;;;;;;;;5055401;28;20291;-69
2023/03/18 09:18:55;;;;;;;8.45;2.95;;;;;;;;;;5056526;28;20096;-69
2023/03/18 09:21:40;;;;;;;5.22;2.95;;;;;;;;;;5055852;28;20020;-71
2023/03/18 09:24:26;;;;;;;8.65;3.25;;;;;;;;;;5056009;28;20013;-70
2023/03/18 09:27:11;;;;;;;4.85;2.72;;;;;;;;;;5055370;28;20458;-70
2023/03/18 09:29:58;;;;;;;4.65;2.60;;;;;;;;;;5054929;28;20025;-69
2023/03/18 09:32:43;;;;;;;5.95;2.67;;;;;;;;;;5056575;28;20016;-69
2023/03/18 09:35:29;;;;;;;9.27;2.63;;;;;;;;;;5055933;28;20021;-70
2023/03/18 09:38:16;;;;;;;6.78;3.42;;;;;;;;;;5055953;28;20025;-70
2023/03/18 09:41:11;;;;;;;8.02;3.05;;;;;;;;;;5056006;28;20032;-70
2023/03/18 09:44:11;;;;;;;7.13;3.00;;;;;;;;;;5055791;28;20327;-71
2023/03/18 09:47:11;;;;;;;5.88;3.20;;;;;;;;;;5054514;28;20017;-69
2023/03/18 09:50:01;;;;;;;6.60;3.20;;;;;;;;;;5053256;28;20031;-70
2023/03/18 09:53:00;;;;;;;5.13;3.60;;;;;;;;;;5055267;28;20088;-70
2023/03/18 09:55:47;;;;;;;12.68;3.70;;;;;;;;;;5040714;28;20036;-70
2023/03/18 09:58:53;;;;;;;9.05;3.72;;;;;;;;;;5055256;28;20025;-71
2023/03/18 10:01:40;;;;;;;7.38;3.67;;;;;;;;;;5052229;28;20021;-69
2023/03/18 10:04:27;;;;;;;7.57;3.80;;;;;;;;;;5060013;28;20031;-69
2023/03/18 10:07:16;;;;;;;10.30;3.70;;;;;;;;;;5073760;28;20106;-69
2023/03/18 10:10:08;;;;;;;12.65;3.88;;;;;;;;;;5078555;28;20021;-69
2023/03/18 10:13:01;;;;;;;6.50;3.97;;;;;;;;;;5075706;28;20376;-69
2023/03/18 10:15:50;;;;;;;12.40;3.65;;;;;;;;;;5075402;28;20021;-70
2023/03/18 10:18:38;;;;;;;5.30;3.40;;;;;;;;;;5075078;28;20024;-70
2023/03/18 10:21:32;;;;;;;7.10;4.07;;;;;;;;;;5074815;28;20334;-70
2023/03/18 10:24:33;;;;;;;7.15;3.80;;;;;;;;;;5074302;28;20020;-71
2023/03/18 10:27:33;;;;;;;8.00;4.60;;;;;;;;;;5075151;28;20024;-69
2023/03/18 10:30:19;;;;;;;13.80;4.45;;;;;;;;;;5073587;28;20444;-70
2023/03/18 10:33:11;;;;;;;6.95;4.32;;;;;;;;;;5073948;28;20055;-70
2023/03/18 10:36:02;;;;;;;6.55;4.40;;;;;;;;;;5073848;28;20032;-70
2023/03/18 10:38:52;;;;;;;9.52;4.40;;;;;;;;;;5076296;28;20032;-69
2023/03/18 10:41:39;;;;;;;7.45;4.22;;;;;;;;;;5074388;28;20017;-70
2023/03/18 10:44:36;;;;;;;8.43;4.55;;;;;;;;;;5075199;28;20043;-70
2023/03/18 10:47:27;;;;;;;8.90;4.80;;;;;;;;;;5075638;28;20047;-69
2023/03/18 10:50:16;;;;;;;16.40;5.10;;;;;;;;;;5073959;28;20040;-70
2023/03/18 10:53:06;;;;;;;12.23;4.90;;;;;;;;;;5074492;28;20032;-70
2023/03/18 10:56:01;;;;;;;7.25;4.75;;;;;;;;;;5074910;28;20021;-71
2023/03/18 10:58:47;;;;;;;11.32;5.43;;;;;;;;;;5075348;28;20085;-69
2023/03/18 11:01:35;;;;;;;11.68;5.47;;;;;;;;;;5073753;28;20032;-71
2023/03/18 11:04:22;;;;;;;8.13;5.13;;;;;;;;;;5074099;28;20031;-72
2023/03/18 11:07:13;;;;;;;10.77;5.80;;;;;;;;;;5058312;28;20067;-71
2023/03/18 11:10:20;;;;;;;8.18;5.22;;;;;;;;;;5053904;28;20031;-71
2023/03/18 11:13:06;;;;;;;10.38;5.68;;;;;;;;;;5055249;28;20104;-70
2023/03/18 11:15:53;;;;;;;8.05;5.47;;;;;;;;;;5055502;28;20013;-70
2023/03/18 11:18:42;;;;;;;7.55;5.57;;;;;;;;;;5053756;28;20107;-70
2023/03/18 11:21:28;;;;;;;11.23;5.38;;;;;;;;;;5054077;28;20024;-70
2023/03/18 11:24:33;;;;;;;13.05;5.75;;;;;;;;;;5040296;28;20045;-70
2023/03/18 11:27:24;;;;;;;10.63;5.45;;;;;;;;;;5054662;28;20484;-71
2023/03/18 11:30:23;;;;;;;10.63;5.78;;;;;;;;;;5054605;28;20184;-71
2023/03/18 11:33:09;;;;;;;18.02;6.18;;;;;;;;;;5054505;28;20021;-71
2023/03/18 11:35:59;;;;;;;11.02;5.90;;;;;;;;;;5053589;28;20036;-70
2023/03/18 11:38:55;;;;;;;8.05;4.90;;;;;;;;;;5053432;28;20453;-70
2023/03/18 11:41:41;;;;;;;16.13;5.75;;;;;;;;;;5054124;28;20017;-70
2023/03/18 11:44:28;;;;;;;12.95;6.13;;;;;;;;;;5053349;28;20398;-70
2023/03/18 11:47:16;;;;;;;8.38;5.55;;;;;;;;;;5053950;28;20048;-71
2023/03/18 11:50:03;;;;;;;8.73;5.50;;;;;;;;;;5054722;28;20078;-71
2023/03/18 11:52:54;;;;;;;13.68;5.50;;;;;;;;;;5053859;28;20091;-72
2023/03/18 11:56:00;;;;;;;16.60;6.18;;;;;;;;;;5054494;28;20040;-71
2023/03/18 11:59:01;;;;;;;12.40;6.03;;;;;;;;;;5053985;28;20017;-71
2023/03/18 12:01:52;;;;;;;12.98;6.13;;;;;;;;;;5052933;28;20031;-70
2023/03/18 12:04:44;;;;;;;9.77;5.32;;;;;;;;;;5053050;28;20013;-70
2023/03/18 12:07:36;;;;;;;9.95;5.35;;;;;;;;;;5071432;28;20052;-69
2023/03/18 12:10:25;;;;;;;9.77;5.38;;;;;;;;;;5073523;28;20108;-70
2023/03/18 12:13:18;;;;;;;7.32;5.07;;;;;;;;;;5074632;28;20029;-70
2023/03/18 12:16:07;;;;;;;12.23;5.47;;;;;;;;;;5063283;28;20441;-71
2023/03/18 12:18:52;;;;;;;11.50;5.65;;;;;;;;;;5076962;28;20102;-70
2023/03/18 12:21:56;;;;;;;20.52;6.15;;;;;;;;;;5076669;28;20360;-70
2023/03/18 12:24:45;;;;;;;7.65;5.15;;;;;;;;;;5076157;28;20396;-70
2023/03/18 12:27:31;;;;;;;10.52;5.10;;;;;;;;;;5078203;28;20066;-71
2023/03/18 12:30:35;;;;;;;9.35;5.10;;;;;;;;;;5076476;28;20021;-71
2023/03/18 12:33:24;;;;;;;9.18;5.35;;;;;;;;;;5064974;28;20052;-69
2023/03/18 12:36:09;;;;;;;12.63;4.95;;;;;;;;;;5082445;28;20142;-70
2023/03/18 12:39:04;;;;;;;8.15;4.60;;;;;;;;;;5086074;28;20029;-70
2023/03/18 12:42:00;;;;;;;8.50;4.30;;;;;;;;;;5078750;28;20089;-71
2023/03/18 12:44:57;;;;;;;8.18;4.40;;;;;;;;;;5077306;28;20020;-69
2023/03/18 12:47:53;;;;;;;8.00;4.70;;;;;;;;;;5078413;28;20086;-69
2023/03/18 12:50:48;;;;;;;11.40;4.35;;;;;;;;;;5062644;28;20035;-71
2023/03/18 12:53:37;;;;;;;8.88;3.70;;;;;;;;;;5082673;28;20035;-70
2023/03/18 12:56:24;;;;;;;6.72;4.00;;;;;;;;;;5080622;28;20063;-71
2023/03/18 12:59:42;;;;;;;9.07;4.72;;;;;;;;;;5076383;28;20062;-70
2023/03/18 13:02:37;;;;;;;10.63;5.32;;;;;;;;;;5043310;28;20025;-70
2023/03/18 13:05:33;;;;;;;9.15;4.90;;;;;;;;;;5077057;28;20017;-70
2023/03/18 13:08:23;;;;;;;17.08;5.38;;;;;;;;;;5077054;28;20051;-69
2023/03/18 13:11:28;;;;;;;7.55;4.18;;;;;;;;;;5077964;28;20017;-70
2023/03/18 13:14:20;;;;;;;17.42;5.03;;;;;;;;;;5076874;28;20107;-69
2023/03/18 13:17:10;;;;;;;12.95;4.60;;;;;;;;;;5077010;28;20361;-70
2023/03/18 13:19:58;;;;;;;8.27;4.95;;;;;;;;;;5075791;28;20020;-70
2023/03/18 13:22:45;;;;;;;9.90;4.45;;;;;;;;;;5076012;28;20028;-72
2023/03/18 13:25:34;;;;;;;7.60;4.63;;;;;;;;;;5076334;28;20538;-70
2023/03/18 13:28:25;;;;;;;12.05;4.53;;;;;;;;;;5076772;28;20166;-69
2023/03/18 13:31:20;;;;;;;8.57;3.78;;;;;;;;;;5075796;28;20094;-70
2023/03/18 13:34:05;;;;;;;7.20;3.78;;;;;;;;;;5075178;28;20107;-70
2023/03/18 13:37:07;;;;;;;16.67;4.55;;;;;;;;;;5075268;28;20017;-71
2023/03/18 13:40:14;;;;;;;7.13;3.50;;;;;;;;;;5075820;28;20021;-72
2023/03/18 13:43:01;;;;;;;11.27;4.35;;;;;;;;;;5075884;28;20074;-69
2023/03/18 13:45:50;;;;;;;8.75;4.15;;;;;;;;;;5076579;28;20012;-71
2023/03/18 13:48:39;;;;;;;11.20;4.72;;;;;;;;;;5075344;28;20032;-71
2023/03/18 13:51:28;;;;;;;9.55;4.78;;;;;;;;;;5076399;28;20031;-71
2023/03/18 13:54:17;;;;;;;15.07;5.13;;;;;;;;;;5076137;28;20020;-72
2023/03/18 13:57:38;;;;;;;13.88;5.25;;;;;;;;;;5075431;28;20098;-70
2023/03/18 14:00:24;;;;;;;14.30;5.50;;;;;;;;;;4995112;28;20492;-71
2023/03/18 14:03:20;;;;;;;11.00;5.68;;;;;;;;;;5075897;28;20028;-71
2023/03/18 14:06:06;;;;;;;15.70;5.60;;;;;;;;;;5075179;28;20049;-70
2023/03/18 14:08:52;;;;;;;11.38;4.93;;;;;;;;;;5061829;28;20035;-71
2023/03/18 14:11:46;;;;;;;11.02;4.97;;;;;;;;;;5075622;28;20071;-70
2023/03/18 14:14:53;;;;;;;14.93;5.38;;;;;;;;;;5076317;28;20445;-70
2023/03/18 14:17:54;;;;;;;24.52;5.82;;;;;;;;;;5074992;28;20451;-70
2023/03/18 14:20:40;;;;;;;11.15;5.00;;;;;;;;;;5074995;28;20020;-70
2023/03/18 14:23:34;;;;;;;15.18;5.55;;;;;;;;;;5075464;28;20064;-69
2023/03/18 14:26:23;;;;;;;14.60;6.13;;;;;;;;;;5075146;28;20020;-70
2023/03/18 14:29:09;;;;;;;13.07;6.15;;;;;;;;;;5075002;28;20093;-70
2023/03/18 14:31:57;;;;;;;20.13;5.20;;;;;;;;;;5076046;28;20028;-70
2023/03/18 14:34:53;;;;;;;10.88;4.43;;;;;;;;;;5074397;28;20437;-69
2023/03/18 14:37:55;;;;;;;9.82;5.05;;;;;;;;;;5058925;28;20030;-70
2023/03/18 14:40:42;;;;;;;14.63;5.43;;;;;;;;;;5075044;28;20013;-71
2023/03/18 14:43:33;;;;;;;16.10;5.88;;;;;;;;;;5074248;28;20103;-69
2023/03/18 14:46:21;;;;;;;12.98;5.82;;;;;;;;;;5060192;28;20026;-70
2023/03/18 14:49:25;;;;;;;24.83;7.57;;;;;;;;;;5075128;28;20020;-69
2023/03/18 14:52:32;;;;;;;12.73;6.70;;;;;;;;;;5074687;28;20108;-70
2023/03/18 14:55:24;;;;;;;21.40;7.40;;;;;;;;;;5074813;28;20027;-70
2023/03/18 14:58:19;;;;;;;18.63;7.07;;;;;;;;;;5074610;28;20028;-69
2023/03/18 15:01:08;;;;;;;17.17;6.65;;;;;;;;;;5060187;28;20020;-69
2023/03/18 15:03:55;;;;;;;14.98;6.28;;;;;;;;;;5059720;28;20514;-70
2023/03/18 15:06:41;;;;;;;11.20;5.35;;;;;;;;;;5060451;28;20393;-70
2023/03/18 15:09:28;;;;;;;9.68;6.00;;;;;;;;;;5073574;28;20067;-70
2023/03/18 15:12:15;;;;;;;18.23;7.22;;;;;;;;;;5074213;28;20035;-69
2023/03/18 15:15:01;;;;;;;21.95;6.63;;;;;;;;;;5075033;28;20043;-70
2023/03/18 15:17:47;;;;;;;13.77;6.38;;;;;;;;;;5078716;28;20025;-69
2023/03/18 15:20:35;;;;;;;16.83;7.13;;;;;;;;;;5077761;28;20055;-69
2023/03/18 15:23:24;;;;;;;20.63;7.38;;;;;;;;;;5075702;28;20027;-70
2023/03/18 15:26:24;;;;;;;22.65;7.47;;;;;;;;;;5074551;28;20025;-70
2023/03/18 15:29:25;;;;;;;14.63;6.88;;;;;;;;;;5074262;28;20032;-70
2023/03/18 15:32:14;;;;;;;18.42;6.90;;;;;;;;;;5060193;28;20043;-71
2023/03/18 15:35:07;;;;;;;19.20;7.82;;;;;;;;;;5059286;28;20032;-70
2023/03/18 15:38:08;;;;;;;24.83;8.68;;;;;;;;;;5074919;28;20077;-68
2023/03/18 15:41:15;;;;;;;20.45;7.38;;;;;;;;;;5075149;28;20460;-70
2023/03/18 15:44:12;;;;;;;24.13;8.57;;;;;;;;;;5077819;28;20028;-69
2023/03/18 15:47:09;;;;;;;17.92;7.93;;;;;;;;;;5076198;28;20016;-69
2023/03/18 15:49:59;;;;;;;17.92;7.43;;;;;;;;;;5078099;28;20384;-70
2023/03/18 15:52:45;;;;;;;18.10;7.50;;;;;;;;;;5076874;28;20464;-71
2023/03/18 15:55:33;;;;;;;14.77;7.63;;;;;;;;;;5062716;28;20361;-69
2023/03/18 15:58:26;;;;;;;20.45;7.90;;;;;;;;;;5077627;28;20020;-69
2023/03/18 16:01:15;;;;;;;11.30;6.93;;;;;;;;;;5077136;28;20345;-69
2023/03/18 16:04:01;;;;;;;17.38;7.93;;;;;;;;;;5078694;28;20032;-71
2023/03/18 16:06:47;;;;;;;17.73;7.93;;;;;;;;;;5077656;28;20048;-69
2023/03/18 16:09:33;;;;;;;15.98;7.25;;;;;;;;;;5077133;28;20467;-70
2023/03/18 16:12:23;;;;;;;15.63;9.05;;;;;;;;;;5077014;28;20062;-69
2023/03/18 16:15:12;;;;;;;13.82;8.00;;;;;;;;;;5077550;28;20028;-69
2023/03/18 16:17:58;;;;;;;16.77;8.05;;;;;;;;;;5077546;28;20075;-70
2023/03/18 16:20:45;;;;;;;12.88;7.50;;;;;;;;;;5076990;28;20017;-70
2023/03/18 16:23:31;;;;;;;15.65;7.90;;;;;;;;;;5077430;28;20516;-72
2023/03/18 16:26:17;;;;;;;14.02;7.47;;;;;;;;;;5063706;28;20429;-69
2023/03/18 16:29:10;;;;;;;12.90;8.27;;;;;;;;;;5078024;28;20162;-70
2023/03/18 16:31:56;;;;;;;13.65;7.75;;;;;;;;;;5077201;28;20017;-70
2023/03/18 16:34:42;;;;;;;14.45;7.97;;;;;;;;;;5077363;28;20040;-71
2023/03/18 16:37:27;;;;;;;14.88;10.38;;;;;;;;;;5061722;28;20083;-70